Cumberland, Washington
Current Conditions -  °F | °C
As of 11:53 PM on Tuesday 21 Oct 2014 (Local Time) from KRNT Reporting Station
Light Rain Light Rain  
Wind Chill: 56°   Ceiling: 8500
Heat Index: 56°   Visibility: 10mi
Dew Point: 50°   Wind: 5mph
Humidity: 80%   Direction: 110°ESE
Pressure: 29.74"   Gusts: NA
Location:  47.1782°N, 121.641°W
Report Text: KRNT 220653Z AUTO 11004KT 10SM -RA OVC085 13/10 A2974 RMK AO2 RAB39 SLP075 P0000 T01330100
Loading
Personal Weather Stations






























Interactive Weather Map
Tropical Storm Tracking
New forecast layout! Learn more

10-Day Weather Forecast

Advertisements
Track Severe Weather on mobile